sensor_id;sensor_type;location;lat;lon;timestamp;P1;durP1;ratioP1;P2;durP2;ratioP2
9473;SDS011;8865;47.636;7.692;2022-11-02T00:02:08;5.43;;;2.90;;
9473;SDS011;8865;47.636;7.692;2022-11-02T00:04:34;8.17;;;3.10;;
9473;SDS011;8865;47.636;7.692;2022-11-02T00:07:00;6.20;;;3.50;;
9473;SDS011;8865;47.636;7.692;2022-11-02T00:09:26;5.50;;;2.87;;
9473;SDS011;8865;47.636;7.692;2022-11-02T00:11:52;5.57;;;3.27;;
9473;SDS011;8865;47.636;7.692;2022-11-02T00:14:18;6.30;;;3.20;;
9473;SDS011;8865;47.636;7.692;2022-11-02T00:16:44;9.43;;;3.30;;
9473;SDS011;8865;47.636;7.692;2022-11-02T00:19:10;7.80;;;3.33;;
9473;SDS011;8865;47.636;7.692;2022-11-02T00:21:36;7.93;;;3.10;;
9473;SDS011;8865;47.636;7.692;2022-11-02T00:24:03;6.80;;;3.00;;
9473;SDS011;8865;47.636;7.692;2022-11-02T00:26:30;7.70;;;2.97;;
9473;SDS011;8865;47.636;7.692;2022-11-02T00:28:58;4.77;;;3.37;;
9473;SDS011;8865;47.636;7.692;2022-11-02T00:31:24;5.90;;;3.00;;
9473;SDS011;8865;47.636;7.692;2022-11-02T00:33:50;6.77;;;3.30;;
9473;SDS011;8865;47.636;7.692;2022-11-02T00:36:16;4.13;;;3.00;;
9473;SDS011;8865;47.636;7.692;2022-11-02T00:38:42;6.10;;;2.80;;
9473;SDS011;8865;47.636;7.692;2022-11-02T00:41:08;5.67;;;2.70;;
9473;SDS011;8865;47.636;7.692;2022-11-02T00:43:34;5.33;;;2.80;;
9473;SDS011;8865;47.636;7.692;2022-11-02T00:46:00;5.30;;;2.90;;
9473;SDS011;8865;47.636;7.692;2022-11-02T00:48:26;5.50;;;3.17;;
9473;SDS011;8865;47.636;7.692;2022-11-02T00:50:52;6.13;;;2.90;;
9473;SDS011;8865;47.636;7.692;2022-11-02T00:53:18;5.60;;;2.93;;
9473;SDS011;8865;47.636;7.692;2022-11-02T00:55:44;6.37;;;3.13;;
9473;SDS011;8865;47.636;7.692;2022-11-02T00:58:10;5.37;;;2.90;;
9473;SDS011;8865;47.636;7.692;2022-11-02T01:00:36;5.07;;;3.00;;
9473;SDS011;8865;47.636;7.692;2022-11-02T01:03:02;4.77;;;3.07;;
9473;SDS011;8865;47.636;7.692;2022-11-02T01:05:28;5.87;;;2.77;;
9473;SDS011;8865;47.636;7.692;2022-11-02T01:07:54;6.93;;;3.03;;
9473;SDS011;8865;47.636;7.692;2022-11-02T01:10:21;4.97;;;3.00;;
9473;SDS011;8865;47.636;7.692;2022-11-02T01:12:47;5.63;;;2.97;;
9473;SDS011;8865;47.636;7.692;2022-11-02T01:15:13;5.70;;;2.97;;
9473;SDS011;8865;47.636;7.692;2022-11-02T01:17:39;4.87;;;2.80;;
9473;SDS011;8865;47.636;7.692;2022-11-02T01:20:05;5.80;;;2.80;;
9473;SDS011;8865;47.636;7.692;2022-11-02T01:22:32;6.83;;;3.40;;
9473;SDS011;8865;47.636;7.692;2022-11-02T01:24:58;5.30;;;3.00;;
9473;SDS011;8865;47.636;7.692;2022-11-02T01:27:24;4.27;;;2.90;;
9473;SDS011;8865;47.636;7.692;2022-11-02T01:29:50;7.20;;;2.73;;
9473;SDS011;8865;47.636;7.692;2022-11-02T01:32:16;5.70;;;2.87;;
9473;SDS011;8865;47.636;7.692;2022-11-02T01:34:42;6.57;;;2.60;;
9473;SDS011;8865;47.636;7.692;2022-11-02T01:37:08;8.17;;;2.83;;
9473;SDS011;8865;47.636;7.692;2022-11-02T01:39:34;6.10;;;2.80;;
9473;SDS011;8865;47.636;7.692;2022-11-02T01:42:00;6.53;;;2.63;;
9473;SDS011;8865;47.636;7.692;2022-11-02T01:46:57;7.87;;;2.73;;
9473;SDS011;8865;47.636;7.692;2022-11-02T01:49:39;5.07;;;2.63;;
9473;SDS011;8865;47.636;7.692;2022-11-02T01:52:11;5.67;;;2.60;;
9473;SDS011;8865;47.636;7.692;2022-11-02T01:54:45;4.73;;;2.43;;
9473;SDS011;8865;47.636;7.692;2022-11-02T01:57:16;4.90;;;2.97;;
9473;SDS011;8865;47.636;7.692;2022-11-02T02:02:24;7.13;;;2.80;;
9473;SDS011;8865;47.636;7.692;2022-11-02T02:04:53;6.77;;;2.90;;
9473;SDS011;8865;47.636;7.692;2022-11-02T02:07:26;7.03;;;3.00;;
9473;SDS011;8865;47.636;7.692;2022-11-02T02:09:53;4.83;;;2.60;;
9473;SDS011;8865;47.636;7.692;2022-11-02T02:12:20;6.37;;;2.40;;
9473;SDS011;8865;47.636;7.692;2022-11-02T02:14:47;6.03;;;2.73;;
9473;SDS011;8865;47.636;7.692;2022-11-02T02:20:36;6.47;;;2.80;;
9473;SDS011;8865;47.636;7.692;2022-11-02T02:29:06;6.93;;;2.87;;
9473;SDS011;8865;47.636;7.692;2022-11-02T02:31:47;5.23;;;3.00;;
9473;SDS011;8865;47.636;7.692;2022-11-02T02:34:39;8.10;;;3.20;;
9473;SDS011;8865;47.636;7.692;2022-11-02T02:37:20;5.80;;;3.03;;
9473;SDS011;8865;47.636;7.692;2022-11-02T02:42:24;4.37;;;2.93;;
9473;SDS011;8865;47.636;7.692;2022-11-02T02:45:17;6.37;;;2.47;;
9473;SDS011;8865;47.636;7.692;2022-11-02T02:47:46;6.23;;;2.70;;
9473;SDS011;8865;47.636;7.692;2022-11-02T02:50:23;4.80;;;2.50;;
9473;SDS011;8865;47.636;7.692;2022-11-02T02:52:52;3.73;;;2.57;;
9473;SDS011;8865;47.636;7.692;2022-11-02T02:55:21;5.60;;;2.70;;
9473;SDS011;8865;47.636;7.692;2022-11-02T02:57:50;5.37;;;2.50;;
9473;SDS011;8865;47.636;7.692;2022-11-02T03:00:19;5.23;;;2.50;;
9473;SDS011;8865;47.636;7.692;2022-11-02T03:02:45;4.57;;;2.67;;
9473;SDS011;8865;47.636;7.692;2022-11-02T03:05:32;5.73;;;2.73;;
9473;SDS011;8865;47.636;7.692;2022-11-02T03:08:10;6.00;;;2.57;;
9473;SDS011;8865;47.636;7.692;2022-11-02T03:10:45;3.93;;;2.47;;
9473;SDS011;8865;47.636;7.692;2022-11-02T03:15:42;4.37;;;2.43;;
9473;SDS011;8865;47.636;7.692;2022-11-02T03:20:52;5.97;;;2.70;;
9473;SDS011;8865;47.636;7.692;2022-11-02T03:31:36;5.27;;;2.23;;
9473;SDS011;8865;47.636;7.692;2022-11-02T03:37:01;4.37;;;2.17;;
9473;SDS011;8865;47.636;7.692;2022-11-02T03:39:37;6.83;;;2.30;;
9473;SDS011;8865;47.636;7.692;2022-11-02T03:42:08;4.43;;;2.50;;
9473;SDS011;8865;47.636;7.692;2022-11-02T03:44:37;5.17;;;2.17;;
9473;SDS011;8865;47.636;7.692;2022-11-02T03:47:04;5.40;;;2.40;;
9473;SDS011;8865;47.636;7.692;2022-11-02T03:49:36;7.90;;;2.30;;
9473;SDS011;8865;47.636;7.692;2022-11-02T03:52:06;2.87;;;2.50;;
9473;SDS011;8865;47.636;7.692;2022-11-02T03:54:48;4.97;;;2.60;;
9473;SDS011;8865;47.636;7.692;2022-11-02T03:57:24;6.40;;;2.50;;
9473;SDS011;8865;47.636;7.692;2022-11-02T04:00:06;4.13;;;2.20;;
9473;SDS011;8865;47.636;7.692;2022-11-02T04:02:34;5.83;;;2.63;;
9473;SDS011;8865;47.636;7.692;2022-11-02T04:05:02;4.57;;;2.10;;
9473;SDS011;8865;47.636;7.692;2022-11-02T04:07:28;5.30;;;2.53;;
9473;SDS011;8865;47.636;7.692;2022-11-02T04:10:18;4.00;;;2.27;;
9473;SDS011;8865;47.636;7.692;2022-11-02T04:12:44;6.50;;;2.63;;
9473;SDS011;8865;47.636;7.692;2022-11-02T04:15:28;6.10;;;2.40;;
9473;SDS011;8865;47.636;7.692;2022-11-02T04:17:54;4.70;;;2.60;;
9473;SDS011;8865;47.636;7.692;2022-11-02T04:20:39;3.60;;;2.20;;
9473;SDS011;8865;47.636;7.692;2022-11-02T04:23:05;6.10;;;2.47;;
9473;SDS011;8865;47.636;7.692;2022-11-02T04:25:52;4.53;;;2.40;;
9473;SDS011;8865;47.636;7.692;2022-11-02T04:28:19;4.07;;;2.33;;
9473;SDS011;8865;47.636;7.692;2022-11-02T04:30:45;3.13;;;2.00;;
9473;SDS011;8865;47.636;7.692;2022-11-02T04:33:11;4.90;;;2.33;;
9473;SDS011;8865;47.636;7.692;2022-11-02T04:35:57;6.23;;;2.23;;
9473;SDS011;8865;47.636;7.692;2022-11-02T04:38:28;5.27;;;2.43;;
9473;SDS011;8865;47.636;7.692;2022-11-02T04:41:08;4.73;;;2.30;;
9473;SDS011;8865;47.636;7.692;2022-11-02T04:44:03;8.83;;;2.63;;
9473;SDS011;8865;47.636;7.692;2022-11-02T04:46:31;5.87;;;2.23;;
9473;SDS011;8865;47.636;7.692;2022-11-02T04:48:58;5.50;;;2.23;;
9473;SDS011;8865;47.636;7.692;2022-11-02T04:51:25;6.03;;;2.60;;
9473;SDS011;8865;47.636;7.692;2022-11-02T04:53:53;5.60;;;2.50;;
9473;SDS011;8865;47.636;7.692;2022-11-02T04:56:20;4.13;;;2.40;;
9473;SDS011;8865;47.636;7.692;2022-11-02T04:58:47;4.97;;;2.37;;
9473;SDS011;8865;47.636;7.692;2022-11-02T05:01:15;4.87;;;2.20;;
9473;SDS011;8865;47.636;7.692;2022-11-02T05:03:42;4.90;;;2.50;;
9473;SDS011;8865;47.636;7.692;2022-11-02T05:06:10;5.63;;;2.43;;
9473;SDS011;8865;47.636;7.692;2022-11-02T05:08:36;5.53;;;2.60;;
9473;SDS011;8865;47.636;7.692;2022-11-02T05:11:03;5.23;;;2.40;;
9473;SDS011;8865;47.636;7.692;2022-11-02T05:13:29;5.37;;;2.70;;
9473;SDS011;8865;47.636;7.692;2022-11-02T05:15:56;5.97;;;2.60;;
9473;SDS011;8865;47.636;7.692;2022-11-02T05:18:23;4.33;;;2.30;;
9473;SDS011;8865;47.636;7.692;2022-11-02T05:20:50;5.10;;;2.07;;
9473;SDS011;8865;47.636;7.692;2022-11-02T05:23:17;6.23;;;2.60;;
9473;SDS011;8865;47.636;7.692;2022-11-02T05:25:57;9.17;;;2.80;;
9473;SDS011;8865;47.636;7.692;2022-11-02T05:28:25;9.53;;;2.40;;
9473;SDS011;8865;47.636;7.692;2022-11-02T05:30:52;4.60;;;2.60;;
9473;SDS011;8865;47.636;7.692;2022-11-02T05:33:18;5.27;;;2.20;;
9473;SDS011;8865;47.636;7.692;2022-11-02T05:35:45;4.07;;;2.53;;
9473;SDS011;8865;47.636;7.692;2022-11-02T05:38:11;5.40;;;2.33;;
9473;SDS011;8865;47.636;7.692;2022-11-02T05:40:37;5.90;;;3.87;;
9473;SDS011;8865;47.636;7.692;2022-11-02T05:43:05;5.00;;;3.00;;
9473;SDS011;8865;47.636;7.692;2022-11-02T05:45:33;5.53;;;2.53;;
9473;SDS011;8865;47.636;7.692;2022-11-02T05:48:00;5.20;;;2.60;;
9473;SDS011;8865;47.636;7.692;2022-11-02T05:50:27;6.13;;;3.03;;
9473;SDS011;8865;47.636;7.692;2022-11-02T05:52:53;6.07;;;3.13;;
9473;SDS011;8865;47.636;7.692;2022-11-02T05:55:19;4.23;;;2.63;;
9473;SDS011;8865;47.636;7.692;2022-11-02T05:57:51;5.00;;;2.90;;
9473;SDS011;8865;47.636;7.692;2022-11-02T06:00:19;6.73;;;4.40;;
9473;SDS011;8865;47.636;7.692;2022-11-02T06:02:46;9.00;;;3.87;;
9473;SDS011;8865;47.636;7.692;2022-11-02T06:05:13;8.03;;;4.37;;
9473;SDS011;8865;47.636;7.692;2022-11-02T06:07:39;7.40;;;5.27;;
9473;SDS011;8865;47.636;7.692;2022-11-02T06:10:06;5.17;;;3.27;;
9473;SDS011;8865;47.636;7.692;2022-11-02T06:12:32;4.20;;;2.60;;
9473;SDS011;8865;47.636;7.692;2022-11-02T06:14:58;4.73;;;2.40;;
9473;SDS011;8865;47.636;7.692;2022-11-02T06:17:24;6.87;;;2.50;;
9473;SDS011;8865;47.636;7.692;2022-11-02T06:19:50;4.97;;;2.70;;
9473;SDS011;8865;47.636;7.692;2022-11-02T06:22:16;5.00;;;2.47;;
9473;SDS011;8865;47.636;7.692;2022-11-02T06:24:42;4.50;;;2.73;;
9473;SDS011;8865;47.636;7.692;2022-11-02T06:27:08;8.10;;;2.77;;
9473;SDS011;8865;47.636;7.692;2022-11-02T06:29:34;6.57;;;2.90;;
9473;SDS011;8865;47.636;7.692;2022-11-02T06:32:00;6.03;;;2.70;;
9473;SDS011;8865;47.636;7.692;2022-11-02T06:34:26;4.37;;;2.93;;
9473;SDS011;8865;47.636;7.692;2022-11-02T06:36:52;6.03;;;3.00;;
9473;SDS011;8865;47.636;7.692;2022-11-02T06:39:18;6.87;;;4.37;;
9473;SDS011;8865;47.636;7.692;2022-11-02T06:41:44;4.20;;;2.93;;
9473;SDS011;8865;47.636;7.692;2022-11-02T06:44:10;7.10;;;3.33;;
9473;SDS011;8865;47.636;7.692;2022-11-02T06:46:36;4.40;;;3.00;;
9473;SDS011;8865;47.636;7.692;2022-11-02T06:49:02;5.47;;;3.10;;
9473;SDS011;8865;47.636;7.692;2022-11-02T06:51:28;8.13;;;3.30;;
9473;SDS011;8865;47.636;7.692;2022-11-02T06:53:53;8.30;;;3.50;;
9473;SDS011;8865;47.636;7.692;2022-11-02T06:56:19;8.03;;;4.30;;
9473;SDS011;8865;47.636;7.692;2022-11-02T06:58:45;5.13;;;3.30;;
9473;SDS011;8865;47.636;7.692;2022-11-02T07:01:11;6.73;;;2.70;;
9473;SDS011;8865;47.636;7.692;2022-11-02T07:03:39;6.47;;;2.47;;
9473;SDS011;8865;47.636;7.692;2022-11-02T07:06:05;5.17;;;2.70;;
9473;SDS011;8865;47.636;7.692;2022-11-02T07:08:31;3.73;;;2.33;;
9473;SDS011;8865;47.636;7.692;2022-11-02T07:10:57;6.00;;;2.73;;
9473;SDS011;8865;47.636;7.692;2022-11-02T07:13:23;5.17;;;3.03;;
9473;SDS011;8865;47.636;7.692;2022-11-02T07:15:50;7.33;;;4.03;;
9473;SDS011;8865;47.636;7.692;2022-11-02T07:18:17;11.73;;;5.47;;
9473;SDS011;8865;47.636;7.692;2022-11-02T07:20:43;7.93;;;4.20;;
9473;SDS011;8865;47.636;7.692;2022-11-02T07:23:09;11.90;;;4.03;;
9473;SDS011;8865;47.636;7.692;2022-11-02T07:25:35;7.43;;;3.57;;
9473;SDS011;8865;47.636;7.692;2022-11-02T07:28:02;7.83;;;3.70;;
9473;SDS011;8865;47.636;7.692;2022-11-02T07:30:28;8.57;;;4.03;;
9473;SDS011;8865;47.636;7.692;2022-11-02T07:32:56;8.80;;;3.80;;
9473;SDS011;8865;47.636;7.692;2022-11-02T07:35:22;8.30;;;4.47;;
9473;SDS011;8865;47.636;7.692;2022-11-02T07:37:54;7.47;;;4.90;;
9473;SDS011;8865;47.636;7.692;2022-11-02T07:40:24;8.37;;;3.60;;
9473;SDS011;8865;47.636;7.692;2022-11-02T07:42:51;7.77;;;3.43;;
9473;SDS011;8865;47.636;7.692;2022-11-02T07:45:19;8.90;;;2.77;;
9473;SDS011;8865;47.636;7.692;2022-11-02T07:47:46;7.80;;;4.00;;
9473;SDS011;8865;47.636;7.692;2022-11-02T07:50:13;8.33;;;3.40;;
9473;SDS011;8865;47.636;7.692;2022-11-02T07:52:44;7.33;;;3.70;;
9473;SDS011;8865;47.636;7.692;2022-11-02T07:55:13;8.63;;;3.40;;
9473;SDS011;8865;47.636;7.692;2022-11-02T07:57:40;7.70;;;3.60;;
9473;SDS011;8865;47.636;7.692;2022-11-02T08:00:10;6.13;;;3.63;;
9473;SDS011;8865;47.636;7.692;2022-11-02T08:02:37;6.17;;;3.30;;
9473;SDS011;8865;47.636;7.692;2022-11-02T08:05:04;5.77;;;3.00;;
9473;SDS011;8865;47.636;7.692;2022-11-02T08:07:30;5.40;;;2.87;;
9473;SDS011;8865;47.636;7.692;2022-11-02T08:09:56;8.30;;;3.27;;
9473;SDS011;8865;47.636;7.692;2022-11-02T08:12:22;6.83;;;3.10;;
9473;SDS011;8865;47.636;7.692;2022-11-02T08:14:48;5.63;;;3.10;;
9473;SDS011;8865;47.636;7.692;2022-11-02T08:17:14;7.73;;;3.20;;
9473;SDS011;8865;47.636;7.692;2022-11-02T08:19:40;6.93;;;3.63;;
9473;SDS011;8865;47.636;7.692;2022-11-02T08:22:06;6.97;;;3.30;;
9473;SDS011;8865;47.636;7.692;2022-11-02T08:24:32;10.23;;;3.80;;
9473;SDS011;8865;47.636;7.692;2022-11-02T08:26:57;9.03;;;3.50;;
9473;SDS011;8865;47.636;7.692;2022-11-02T08:29:23;7.80;;;3.47;;
9473;SDS011;8865;47.636;7.692;2022-11-02T08:31:49;8.73;;;4.23;;
9473;SDS011;8865;47.636;7.692;2022-11-02T08:34:15;8.23;;;4.10;;
9473;SDS011;8865;47.636;7.692;2022-11-02T08:36:41;9.03;;;4.07;;
9473;SDS011;8865;47.636;7.692;2022-11-02T08:39:07;6.70;;;3.80;;
9473;SDS011;8865;47.636;7.692;2022-11-02T08:41:33;5.83;;;3.20;;
9473;SDS011;8865;47.636;7.692;2022-11-02T08:43:59;5.10;;;2.90;;
9473;SDS011;8865;47.636;7.692;2022-11-02T08:46:25;8.60;;;2.83;;
9473;SDS011;8865;47.636;7.692;2022-11-02T08:48:51;3.60;;;2.60;;
9473;SDS011;8865;47.636;7.692;2022-11-02T08:51:17;7.60;;;3.10;;
9473;SDS011;8865;47.636;7.692;2022-11-02T08:53:43;6.73;;;3.20;;
9473;SDS011;8865;47.636;7.692;2022-11-02T08:56:09;6.53;;;2.73;;
9473;SDS011;8865;47.636;7.692;2022-11-02T08:58:35;5.57;;;2.57;;
9473;SDS011;8865;47.636;7.692;2022-11-02T09:01:01;6.37;;;2.70;;
9473;SDS011;8865;47.636;7.692;2022-11-02T09:03:27;6.43;;;3.10;;
9473;SDS011;8865;47.636;7.692;2022-11-02T09:06:00;9.03;;;3.20;;
9473;SDS011;8865;47.636;7.692;2022-11-02T09:08:27;7.80;;;3.80;;
9473;SDS011;8865;47.636;7.692;2022-11-02T09:10:56;6.50;;;3.23;;
9473;SDS011;8865;47.636;7.692;2022-11-02T09:13:24;8.87;;;3.00;;
9473;SDS011;8865;47.636;7.692;2022-11-02T09:15:52;4.83;;;2.67;;
9473;SDS011;8865;47.636;7.692;2022-11-02T09:18:20;6.27;;;2.40;;
9473;SDS011;8865;47.636;7.692;2022-11-02T09:20:46;9.83;;;3.27;;
9473;SDS011;8865;47.636;7.692;2022-11-02T09:23:16;4.83;;;2.47;;
9473;SDS011;8865;47.636;7.692;2022-11-02T09:25:43;6.53;;;2.63;;
9473;SDS011;8865;47.636;7.692;2022-11-02T09:28:09;4.60;;;2.10;;
9473;SDS011;8865;47.636;7.692;2022-11-02T09:30:36;9.50;;;2.73;;
9473;SDS011;8865;47.636;7.692;2022-11-02T09:33:02;8.33;;;2.60;;
9473;SDS011;8865;47.636;7.692;2022-11-02T09:35:30;6.80;;;2.20;;
9473;SDS011;8865;47.636;7.692;2022-11-02T09:38:01;7.07;;;2.10;;
9473;SDS011;8865;47.636;7.692;2022-11-02T09:40:35;6.20;;;2.13;;
9473;SDS011;8865;47.636;7.692;2022-11-02T09:45:34;6.27;;;1.87;;
9473;SDS011;8865;47.636;7.692;2022-11-02T09:48:16;5.60;;;2.00;;
9473;SDS011;8865;47.636;7.692;2022-11-02T09:50:49;5.53;;;2.00;;
9473;SDS011;8865;47.636;7.692;2022-11-02T09:53:21;4.53;;;1.80;;
9473;SDS011;8865;47.636;7.692;2022-11-02T09:55:54;4.70;;;1.73;;
9473;SDS011;8865;47.636;7.692;2022-11-02T09:58:27;8.13;;;2.43;;
9473;SDS011;8865;47.636;7.692;2022-11-02T10:01:12;4.03;;;2.57;;
9473;SDS011;8865;47.636;7.692;2022-11-02T10:03:57;7.57;;;2.77;;
9473;SDS011;8865;47.636;7.692;2022-11-02T10:06:25;5.10;;;2.57;;
9473;SDS011;8865;47.636;7.692;2022-11-02T10:09:07;6.87;;;2.90;;
9473;SDS011;8865;47.636;7.692;2022-11-02T10:11:45;5.33;;;2.90;;
9473;SDS011;8865;47.636;7.692;2022-11-02T10:14:21;7.03;;;2.87;;
9473;SDS011;8865;47.636;7.692;2022-11-02T10:16:55;5.00;;;2.10;;
9473;SDS011;8865;47.636;7.692;2022-11-02T10:19:47;5.53;;;1.73;;
9473;SDS011;8865;47.636;7.692;2022-11-02T10:22:17;3.30;;;1.50;;
9473;SDS011;8865;47.636;7.692;2022-11-02T10:24:46;5.07;;;2.03;;
9473;SDS011;8865;47.636;7.692;2022-11-02T10:27:24;7.13;;;2.00;;
9473;SDS011;8865;47.636;7.692;2022-11-02T10:29:59;4.57;;;1.70;;
9473;SDS011;8865;47.636;7.692;2022-11-02T10:32:29;3.70;;;1.90;;
9473;SDS011;8865;47.636;7.692;2022-11-02T10:34:56;5.70;;;1.80;;
9473;SDS011;8865;47.636;7.692;2022-11-02T10:37:32;6.37;;;1.97;;
9473;SDS011;8865;47.636;7.692;2022-11-02T10:40:14;5.07;;;2.00;;
9473;SDS011;8865;47.636;7.692;2022-11-02T10:51:24;3.43;;;1.60;;
9473;SDS011;8865;47.636;7.692;2022-11-02T10:53:51;4.97;;;2.10;;
9473;SDS011;8865;47.636;7.692;2022-11-02T10:56:18;3.63;;;1.70;;
9473;SDS011;8865;47.636;7.692;2022-11-02T11:01:24;4.67;;;1.73;;
9473;SDS011;8865;47.636;7.692;2022-11-02T11:03:56;4.80;;;1.63;;
9473;SDS011;8865;47.636;7.692;2022-11-02T11:06:38;6.40;;;1.73;;
9473;SDS011;8865;47.636;7.692;2022-11-02T11:11:58;5.57;;;1.80;;
9473;SDS011;8865;47.636;7.692;2022-11-02T11:14:26;5.27;;;1.77;;
9473;SDS011;8865;47.636;7.692;2022-11-02T11:16:57;6.37;;;1.90;;
9473;SDS011;8865;47.636;7.692;2022-11-02T11:19:33;4.60;;;1.70;;
9473;SDS011;8865;47.636;7.692;2022-11-02T11:22:03;5.73;;;1.90;;
9473;SDS011;8865;47.636;7.692;2022-11-02T11:24:52;4.43;;;1.67;;
9473;SDS011;8865;47.636;7.692;2022-11-02T11:27:19;5.03;;;1.83;;
9473;SDS011;8865;47.636;7.692;2022-11-02T11:32:21;3.47;;;1.63;;
9473;SDS011;8865;47.636;7.692;2022-11-02T11:34:59;5.60;;;1.80;;
9473;SDS011;8865;47.636;7.692;2022-11-02T11:37:28;4.22;;;1.90;;
9473;SDS011;8865;47.636;7.692;2022-11-02T11:39:56;3.17;;;1.60;;
9473;SDS011;8865;47.636;7.692;2022-11-02T11:42:29;6.30;;;1.88;;
9473;SDS011;8865;47.636;7.692;2022-11-02T11:45:32;5.05;;;1.70;;
9473;SDS011;8865;47.636;7.692;2022-11-02T11:47:53;3.78;;;1.55;;
9473;SDS011;8865;47.636;7.692;2022-11-02T11:50:28;5.22;;;1.92;;
9473;SDS011;8865;47.636;7.692;2022-11-02T11:53:09;5.30;;;1.67;;
9473;SDS011;8865;47.636;7.692;2022-11-02T11:55:45;5.30;;;1.60;;
9473;SDS011;8865;47.636;7.692;2022-11-02T12:03:30;3.20;;;1.50;;
9473;SDS011;8865;47.636;7.692;2022-11-02T12:08:43;3.92;;;1.42;;
9473;SDS011;8865;47.636;7.692;2022-11-02T12:11:31;3.20;;;1.40;;
9473;SDS011;8865;47.636;7.692;2022-11-02T12:30:20;3.20;;;1.70;;
9473;SDS011;8865;47.636;7.692;2022-11-02T12:35:36;3.88;;;1.55;;
9473;SDS011;8865;47.636;7.692;2022-11-02T12:40:58;2.88;;;1.50;;
9473;SDS011;8865;47.636;7.692;2022-11-02T12:43:42;5.65;;;1.58;;
9473;SDS011;8865;47.636;7.692;2022-11-02T12:54:31;3.80;;;1.50;;
9473;SDS011;8865;47.636;7.692;2022-11-02T12:57:20;6.77;;;2.10;;
9473;SDS011;8865;47.636;7.692;2022-11-02T12:59:49;5.23;;;1.90;;
9473;SDS011;8865;47.636;7.692;2022-11-02T13:02:29;3.97;;;1.60;;
9473;SDS011;8865;47.636;7.692;2022-11-02T13:05:16;3.50;;;1.63;;
9473;SDS011;8865;47.636;7.692;2022-11-02T13:08:32;3.67;;;1.43;;
9473;SDS011;8865;47.636;7.692;2022-11-02T13:10:35;3.80;;;1.50;;
9473;SDS011;8865;47.636;7.692;2022-11-02T13:13:09;5.23;;;1.90;;
9473;SDS011;8865;47.636;7.692;2022-11-02T13:15:40;3.70;;;1.60;;
9473;SDS011;8865;47.636;7.692;2022-11-02T13:18:11;3.70;;;1.47;;
9473;SDS011;8865;47.636;7.692;2022-11-02T13:20:50;6.80;;;1.53;;
9473;SDS011;8865;47.636;7.692;2022-11-02T13:26:19;3.80;;;1.70;;
9473;SDS011;8865;47.636;7.692;2022-11-02T13:29:12;4.93;;;1.40;;
9473;SDS011;8865;47.636;7.692;2022-11-02T13:31:44;4.97;;;1.50;;
9473;SDS011;8865;47.636;7.692;2022-11-02T13:34:21;3.03;;;1.40;;
9473;SDS011;8865;47.636;7.692;2022-11-02T13:37:18;3.67;;;1.40;;
9473;SDS011;8865;47.636;7.692;2022-11-02T13:39:50;4.17;;;1.60;;
9473;SDS011;8865;47.636;7.692;2022-11-02T13:42:33;5.17;;;1.40;;
9473;SDS011;8865;47.636;7.692;2022-11-02T13:51:03;5.90;;;1.60;;
9473;SDS011;8865;47.636;7.692;2022-11-02T13:53:38;3.95;;;1.20;;
9473;SDS011;8865;47.636;7.692;2022-11-02T13:56:19;3.25;;;1.40;;
9473;SDS011;8865;47.636;7.692;2022-11-02T13:58:52;4.07;;;1.73;;
9473;SDS011;8865;47.636;7.692;2022-11-02T14:01:25;5.10;;;1.50;;
9473;SDS011;8865;47.636;7.692;2022-11-02T14:06:26;3.83;;;1.60;;
9473;SDS011;8865;47.636;7.692;2022-11-02T14:11:26;3.57;;;1.60;;
9473;SDS011;8865;47.636;7.692;2022-11-02T14:21:42;5.70;;;2.17;;
9473;SDS011;8865;47.636;7.692;2022-11-02T14:26:57;4.80;;;1.87;;
9473;SDS011;8865;47.636;7.692;2022-11-02T14:48:50;4.07;;;1.60;;
9473;SDS011;8865;47.636;7.692;2022-11-02T14:51:20;5.07;;;1.93;;
9473;SDS011;8865;47.636;7.692;2022-11-02T14:53:59;6.70;;;1.90;;
9473;SDS011;8865;47.636;7.692;2022-11-02T14:57:31;6.80;;;1.67;;
9473;SDS011;8865;47.636;7.692;2022-11-02T14:59:47;6.47;;;1.80;;
9473;SDS011;8865;47.636;7.692;2022-11-02T15:02:19;4.47;;;1.50;;
9473;SDS011;8865;47.636;7.692;2022-11-02T15:04:51;4.77;;;1.73;;
9473;SDS011;8865;47.636;7.692;2022-11-02T15:07:21;6.70;;;2.13;;
9473;SDS011;8865;47.636;7.692;2022-11-02T15:10:32;5.83;;;1.63;;
9473;SDS011;8865;47.636;7.692;2022-11-02T15:12:43;7.00;;;1.77;;
9473;SDS011;8865;47.636;7.692;2022-11-02T15:17:52;6.70;;;1.90;;
9473;SDS011;8865;47.636;7.692;2022-11-02T15:20:29;8.67;;;2.40;;
9473;SDS011;8865;47.636;7.692;2022-11-02T15:23:18;5.77;;;1.87;;
9473;SDS011;8865;47.636;7.692;2022-11-02T15:25:51;6.40;;;2.37;;
9473;SDS011;8865;47.636;7.692;2022-11-02T15:28:21;9.37;;;2.57;;
9473;SDS011;8865;47.636;7.692;2022-11-02T15:30:50;5.50;;;2.07;;
9473;SDS011;8865;47.636;7.692;2022-11-02T15:36:04;3.23;;;1.90;;
9473;SDS011;8865;47.636;7.692;2022-11-02T15:38:32;5.07;;;2.20;;
9473;SDS011;8865;47.636;7.692;2022-11-02T15:41:20;7.30;;;2.23;;
9473;SDS011;8865;47.636;7.692;2022-11-02T15:55:39;6.43;;;2.60;;
9473;SDS011;8865;47.636;7.692;2022-11-02T16:03:31;5.73;;;2.03;;
9473;SDS011;8865;47.636;7.692;2022-11-02T16:05:57;6.60;;;2.00;;
9473;SDS011;8865;47.636;7.692;2022-11-02T16:08:29;5.23;;;1.97;;
9473;SDS011;8865;47.636;7.692;2022-11-02T16:11:03;5.00;;;1.90;;
9473;SDS011;8865;47.636;7.692;2022-11-02T16:13:32;6.40;;;2.30;;
9473;SDS011;8865;47.636;7.692;2022-11-02T16:16:05;5.93;;;2.20;;
9473;SDS011;8865;47.636;7.692;2022-11-02T16:18:36;6.10;;;2.13;;
9473;SDS011;8865;47.636;7.692;2022-11-02T16:21:04;7.30;;;2.80;;
9473;SDS011;8865;47.636;7.692;2022-11-02T16:23:33;8.30;;;3.13;;
9473;SDS011;8865;47.636;7.692;2022-11-02T16:26:02;9.60;;;3.30;;
9473;SDS011;8865;47.636;7.692;2022-11-02T16:28:32;6.47;;;2.43;;
9473;SDS011;8865;47.636;7.692;2022-11-02T16:33:39;9.57;;;2.97;;
9473;SDS011;8865;47.636;7.692;2022-11-02T16:36:08;6.37;;;3.00;;
9473;SDS011;8865;47.636;7.692;2022-11-02T16:38:36;10.30;;;3.70;;
9473;SDS011;8865;47.636;7.692;2022-11-02T16:41:06;10.80;;;3.50;;
9473;SDS011;8865;47.636;7.692;2022-11-02T16:43:33;6.63;;;2.63;;
9473;SDS011;8865;47.636;7.692;2022-11-02T16:46:02;9.63;;;2.63;;
9473;SDS011;8865;47.636;7.692;2022-11-02T16:48:30;9.50;;;2.87;;
9473;SDS011;8865;47.636;7.692;2022-11-02T16:53:45;4.23;;;2.20;;
9473;SDS011;8865;47.636;7.692;2022-11-02T16:56:27;6.67;;;3.00;;
9473;SDS011;8865;47.636;7.692;2022-11-02T16:59:01;8.17;;;2.83;;
9473;SDS011;8865;47.636;7.692;2022-11-02T17:01:36;6.83;;;2.73;;
9473;SDS011;8865;47.636;7.692;2022-11-02T17:04:20;9.57;;;2.80;;
9473;SDS011;8865;47.636;7.692;2022-11-02T17:06:48;10.60;;;3.00;;
9473;SDS011;8865;47.636;7.692;2022-11-02T17:09:23;7.43;;;3.23;;
9473;SDS011;8865;47.636;7.692;2022-11-02T17:11:53;6.33;;;3.40;;
9473;SDS011;8865;47.636;7.692;2022-11-02T17:14:21;7.23;;;3.40;;
9473;SDS011;8865;47.636;7.692;2022-11-02T17:17:05;7.70;;;4.37;;
9473;SDS011;8865;47.636;7.692;2022-11-02T17:20:14;6.60;;;3.53;;
9473;SDS011;8865;47.636;7.692;2022-11-02T17:25:26;8.30;;;2.80;;
9473;SDS011;8865;47.636;7.692;2022-11-02T17:27:53;7.37;;;3.50;;
9473;SDS011;8865;47.636;7.692;2022-11-02T17:33:00;7.67;;;3.13;;
9473;SDS011;8865;47.636;7.692;2022-11-02T17:35:33;8.13;;;3.70;;
9473;SDS011;8865;47.636;7.692;2022-11-02T17:38:00;9.50;;;3.37;;
9473;SDS011;8865;47.636;7.692;2022-11-02T17:40:27;9.13;;;3.13;;
9473;SDS011;8865;47.636;7.692;2022-11-02T17:42:53;6.90;;;2.80;;
9473;SDS011;8865;47.636;7.692;2022-11-02T17:47:56;8.77;;;3.00;;
9473;SDS011;8865;47.636;7.692;2022-11-02T17:50:24;6.63;;;2.80;;
9473;SDS011;8865;47.636;7.692;2022-11-02T17:52:52;6.93;;;3.30;;
9473;SDS011;8865;47.636;7.692;2022-11-02T17:55:19;9.93;;;3.80;;
9473;SDS011;8865;47.636;7.692;2022-11-02T17:57:51;8.67;;;4.07;;
9473;SDS011;8865;47.636;7.692;2022-11-02T18:00:17;9.87;;;3.97;;
9473;SDS011;8865;47.636;7.692;2022-11-02T18:02:46;6.90;;;3.43;;
9473;SDS011;8865;47.636;7.692;2022-11-02T18:08:02;7.93;;;4.47;;
9473;SDS011;8865;47.636;7.692;2022-11-02T18:10:31;9.47;;;5.13;;
9473;SDS011;8865;47.636;7.692;2022-11-02T18:12:59;9.63;;;5.00;;
9473;SDS011;8865;47.636;7.692;2022-11-02T18:15:26;8.10;;;4.43;;
9473;SDS011;8865;47.636;7.692;2022-11-02T18:17:54;10.07;;;4.90;;
9473;SDS011;8865;47.636;7.692;2022-11-02T18:20:21;9.27;;;4.67;;
9473;SDS011;8865;47.636;7.692;2022-11-02T18:22:48;9.83;;;5.53;;
9473;SDS011;8865;47.636;7.692;2022-11-02T18:25:16;10.60;;;6.03;;
9473;SDS011;8865;47.636;7.692;2022-11-02T18:27:43;10.63;;;5.67;;
9473;SDS011;8865;47.636;7.692;2022-11-02T18:30:10;10.47;;;5.90;;